sensor_id;sensor_type;location;lat;lon;timestamp;pressure;altitude;pressure_sealevel;temperature;humidity
25650;BME280;13505;45.196;5.696;2023-06-14T06:03:51;98636.56;;;20.46;99.71
25650;BME280;13505;45.196;5.696;2023-06-14T06:08:43;98634.91;;;20.63;96.83
25650;BME280;13505;45.196;5.696;2023-06-14T06:13:35;98639.84;;;20.68;95.87
25650;BME280;13505;45.196;5.696;2023-06-14T06:18:25;98627.44;;;20.67;95.04
25650;BME280;13505;45.196;5.696;2023-06-14T06:23:16;98631.78;;;20.68;96.22
25650;BME280;13505;45.196;5.696;2023-06-14T06:28:06;98634.16;;;20.71;96.85
25650;BME280;13505;45.196;5.696;2023-06-14T06:32:57;98625.47;;;20.59;97.15
25650;BME280;13505;45.196;5.696;2023-06-14T06:37:47;98614.50;;;20.62;97.93
25650;BME280;13505;45.196;5.696;2023-06-14T06:42:38;98621.47;;;20.73;97.81
25650;BME280;13505;45.196;5.696;2023-06-14T06:47:28;98633.41;;;20.78;96.43
25650;BME280;13505;45.196;5.696;2023-06-14T06:52:18;98626.88;;;20.91;96.50
25650;BME280;13505;45.196;5.696;2023-06-14T06:57:09;98625.16;;;21.00;96.99
25650;BME280;13505;45.196;5.696;2023-06-14T07:02:01;98631.75;;;21.05;97.60
25650;BME280;13505;45.196;5.696;2023-06-14T07:06:51;98631.75;;;21.05;97.18
25650;BME280;13505;45.196;5.696;2023-06-14T07:11:43;98645.16;;;21.05;96.53
25650;BME280;13505;45.196;5.696;2023-06-14T07:16:34;98639.38;;;21.00;96.88
25650;BME280;13505;45.196;5.696;2023-06-14T07:21:24;98649.72;;;20.95;96.43
25650;BME280;13505;45.196;5.696;2023-06-14T07:26:15;98658.47;;;20.97;97.57
25650;BME280;13505;45.196;5.696;2023-06-14T07:31:06;98660.06;;;21.08;96.64
25650;BME280;13505;45.196;5.696;2023-06-14T07:35:56;98654.91;;;20.97;96.99
25650;BME280;13505;45.196;5.696;2023-06-14T07:40:47;98653.13;;;21.15;95.70
25650;BME280;13505;45.196;5.696;2023-06-14T07:45:37;98650.59;;;21.14;96.51
25650;BME280;13505;45.196;5.696;2023-06-14T07:50:28;98652.34;;;21.05;98.17
25650;BME280;13505;45.196;5.696;2023-06-14T07:55:19;98653.06;;;21.25;99.36
25650;BME280;13505;45.196;5.696;2023-06-14T08:00:09;98657.81;;;21.50;96.44
25650;BME280;13505;45.196;5.696;2023-06-14T08:05:05;98652.88;;;22.26;92.77
25650;BME280;13505;45.196;5.696;2023-06-14T08:09:55;98663.78;;;22.51;85.94
25650;BME280;13505;45.196;5.696;2023-06-14T08:14:46;98660.41;;;22.49;83.41
25650;BME280;13505;45.196;5.696;2023-06-14T08:19:36;98651.78;;;22.45;86.41
25650;BME280;13505;45.196;5.696;2023-06-14T08:24:26;98649.97;;;22.80;84.43
25650;BME280;13505;45.196;5.696;2023-06-14T08:29:17;98649.00;;;23.82;78.77
25650;BME280;13505;45.196;5.696;2023-06-14T08:34:07;98647.75;;;24.35;76.75
25650;BME280;13505;45.196;5.696;2023-06-14T08:38:57;98647.25;;;24.31;73.42
25650;BME280;13505;45.196;5.696;2023-06-14T08:43:48;98649.44;;;24.36;71.59
25650;BME280;13505;45.196;5.696;2023-06-14T08:48:39;98645.09;;;24.02;72.31
25650;BME280;13505;45.196;5.696;2023-06-14T08:53:31;98647.47;;;24.13;70.67
25650;BME280;13505;45.196;5.696;2023-06-14T08:58:22;98641.31;;;24.92;66.54
25650;BME280;13505;45.196;5.696;2023-06-14T09:03:14;98630.84;;;25.76;65.84
25650;BME280;13505;45.196;5.696;2023-06-14T09:08:04;98638.16;;;26.05;62.04
25650;BME280;13505;45.196;5.696;2023-06-14T09:12:55;98636.63;;;26.41;59.17
25650;BME280;13505;45.196;5.696;2023-06-14T09:17:45;98632.59;;;26.37;56.84
25650;BME280;13505;45.196;5.696;2023-06-14T09:22:37;98631.19;;;26.71;58.40
25650;BME280;13505;45.196;5.696;2023-06-14T09:27:28;98639.88;;;25.83;57.74
25650;BME280;13505;45.196;5.696;2023-06-14T09:32:20;98629.59;;;26.77;57.21
25650;BME280;13505;45.196;5.696;2023-06-14T09:37:11;98629.53;;;26.55;56.16
25650;BME280;13505;45.196;5.696;2023-06-14T09:42:16;98632.25;;;26.55;58.47
25650;BME280;13505;45.196;5.696;2023-06-14T09:47:08;98625.59;;;26.58;58.62
25650;BME280;13505;45.196;5.696;2023-06-14T09:51:59;98619.03;;;26.82;58.46
25650;BME280;13505;45.196;5.696;2023-06-14T09:56:51;98627.19;;;27.19;57.54
25650;BME280;13505;45.196;5.696;2023-06-14T10:01:43;98619.69;;;26.84;54.93
25650;BME280;13505;45.196;5.696;2023-06-14T10:06:36;98611.88;;;26.89;58.19
25650;BME280;13505;45.196;5.696;2023-06-14T10:11:27;98622.16;;;26.49;57.03
25650;BME280;13505;45.196;5.696;2023-06-14T10:16:37;98615.13;;;27.00;57.04
25650;BME280;13505;45.196;5.696;2023-06-14T10:21:37;98613.00;;;27.82;58.74
25650;BME280;13505;45.196;5.696;2023-06-14T10:26:32;98608.75;;;27.29;56.29
25650;BME280;13505;45.196;5.696;2023-06-14T10:31:22;98594.66;;;27.84;57.49
25650;BME280;13505;45.196;5.696;2023-06-14T10:41:12;98597.22;;;27.64;54.85
25650;BME280;13505;45.196;5.696;2023-06-14T10:46:18;98597.47;;;27.26;58.06
25650;BME280;13505;45.196;5.696;2023-06-14T10:51:20;98584.47;;;28.50;50.74
25650;BME280;13505;45.196;5.696;2023-06-14T10:56:24;98581.53;;;29.14;48.53
25650;BME280;13505;45.196;5.696;2023-06-14T11:01:28;98573.06;;;29.64;46.05
25650;BME280;13505;45.196;5.696;2023-06-14T11:06:22;98572.59;;;30.15;43.17
25650;BME280;13505;45.196;5.696;2023-06-14T11:11:21;98574.47;;;29.94;42.95
25650;BME280;13505;45.196;5.696;2023-06-14T11:16:14;98572.09;;;30.31;42.48
25650;BME280;13505;45.196;5.696;2023-06-14T11:21:05;98573.41;;;30.81;40.16
25650;BME280;13505;45.196;5.696;2023-06-14T11:25:56;98563.41;;;30.75;40.37
25650;BME280;13505;45.196;5.696;2023-06-14T11:30:46;98564.34;;;30.94;39.94
25650;BME280;13505;45.196;5.696;2023-06-14T11:35:36;98574.31;;;31.00;39.47
25650;BME280;13505;45.196;5.696;2023-06-14T11:40:27;98565.09;;;31.01;38.71
25650;BME280;13505;45.196;5.696;2023-06-14T11:45:18;98559.06;;;30.99;38.97
25650;BME280;13505;45.196;5.696;2023-06-14T11:50:09;98559.13;;;30.40;37.17
25650;BME280;13505;45.196;5.696;2023-06-14T11:54:59;98547.66;;;30.84;35.66
25650;BME280;13505;45.196;5.696;2023-06-14T11:59:50;98546.41;;;31.12;35.44
25650;BME280;13505;45.196;5.696;2023-06-14T12:04:41;98548.41;;;31.55;34.95
25650;BME280;13505;45.196;5.696;2023-06-14T12:09:32;98557.19;;;31.57;33.23
25650;BME280;13505;45.196;5.696;2023-06-14T12:14:28;98550.75;;;31.26;32.50
25650;BME280;13505;45.196;5.696;2023-06-14T12:19:18;98550.41;;;31.67;30.43
25650;BME280;13505;45.196;5.696;2023-06-14T12:24:09;98548.34;;;31.87;29.67
25650;BME280;13505;45.196;5.696;2023-06-14T12:29:05;98551.69;;;31.64;29.64
25650;BME280;13505;45.196;5.696;2023-06-14T12:33:56;98551.13;;;31.81;29.95
25650;BME280;13505;45.196;5.696;2023-06-14T12:38:46;98550.22;;;31.61;29.32
25650;BME280;13505;45.196;5.696;2023-06-14T12:43:37;98545.78;;;31.93;27.24
25650;BME280;13505;45.196;5.696;2023-06-14T12:48:27;98545.19;;;31.65;27.85
25650;BME280;13505;45.196;5.696;2023-06-14T12:53:19;98552.34;;;31.59;27.69
25650;BME280;13505;45.196;5.696;2023-06-14T12:58:11;98531.09;;;31.17;29.29
25650;BME280;13505;45.196;5.696;2023-06-14T13:03:04;98536.88;;;31.53;28.67
25650;BME280;13505;45.196;5.696;2023-06-14T13:07:55;98529.50;;;32.05;28.67
25650;BME280;13505;45.196;5.696;2023-06-14T13:12:45;98528.69;;;31.79;27.98
25650;BME280;13505;45.196;5.696;2023-06-14T13:17:36;98531.31;;;32.11;29.64
25650;BME280;13505;45.196;5.696;2023-06-14T13:22:30;98538.38;;;32.19;29.83
25650;BME280;13505;45.196;5.696;2023-06-14T13:27:20;98521.59;;;32.52;30.37
25650;BME280;13505;45.196;5.696;2023-06-14T13:32:11;98525.09;;;32.22;31.70
25650;BME280;13505;45.196;5.696;2023-06-14T13:37:01;98527.47;;;32.19;30.77
25650;BME280;13505;45.196;5.696;2023-06-14T13:41:51;98530.09;;;31.88;31.27
25650;BME280;13505;45.196;5.696;2023-06-14T13:46:42;98531.69;;;32.14;30.62
25650;BME280;13505;45.196;5.696;2023-06-14T13:51:32;98521.50;;;31.66;33.54
25650;BME280;13505;45.196;5.696;2023-06-14T13:56:23;98523.28;;;32.16;32.55
25650;BME280;13505;45.196;5.696;2023-06-14T14:01:14;98526.63;;;31.55;34.06
25650;BME280;13505;45.196;5.696;2023-06-14T14:06:05;98517.59;;;31.29;35.33
25650;BME280;13505;45.196;5.696;2023-06-14T14:10:57;98510.63;;;31.08;35.98
25650;BME280;13505;45.196;5.696;2023-06-14T14:15:47;98506.22;;;31.39;36.35
25650;BME280;13505;45.196;5.696;2023-06-14T14:20:39;98515.09;;;31.53;35.42
25650;BME280;13505;45.196;5.696;2023-06-14T14:25:29;98517.72;;;31.41;35.59
25650;BME280;13505;45.196;5.696;2023-06-14T14:30:20;98513.06;;;31.23;36.20
25650;BME280;13505;45.196;5.696;2023-06-14T14:35:13;98499.50;;;31.10;35.31
25650;BME280;13505;45.196;5.696;2023-06-14T14:40:04;98489.94;;;30.75;35.06
25650;BME280;13505;45.196;5.696;2023-06-14T14:44:54;98510.41;;;30.77;34.09
25650;BME280;13505;45.196;5.696;2023-06-14T14:49:45;98506.28;;;31.00;34.45
25650;BME280;13505;45.196;5.696;2023-06-14T14:54:35;98514.75;;;30.40;35.14
25650;BME280;13505;45.196;5.696;2023-06-14T14:59:26;98530.06;;;30.34;34.06
25650;BME280;13505;45.196;5.696;2023-06-14T15:04:16;98537.81;;;30.30;34.45
25650;BME280;13505;45.196;5.696;2023-06-14T15:09:07;98536.75;;;30.31;34.34
25650;BME280;13505;45.196;5.696;2023-06-14T15:13:57;98533.06;;;30.12;34.62
25650;BME280;13505;45.196;5.696;2023-06-14T15:18:48;98537.03;;;29.96;33.34
25650;BME280;13505;45.196;5.696;2023-06-14T15:23:38;98534.75;;;29.93;32.69
25650;BME280;13505;45.196;5.696;2023-06-14T15:28:28;98536.63;;;29.99;32.37
25650;BME280;13505;45.196;5.696;2023-06-14T15:33:19;98541.66;;;30.09;31.79
25650;BME280;13505;45.196;5.696;2023-06-14T15:38:11;98548.47;;;30.32;31.27
25650;BME280;13505;45.196;5.696;2023-06-14T15:43:01;98540.63;;;29.97;31.69
25650;BME280;13505;45.196;5.696;2023-06-14T15:47:51;98553.13;;;30.18;31.07
25650;BME280;13505;45.196;5.696;2023-06-14T15:52:41;98548.16;;;30.08;31.24
25650;BME280;13505;45.196;5.696;2023-06-14T15:57:32;98554.44;;;29.75;32.71
25650;BME280;13505;45.196;5.696;2023-06-14T16:02:22;98548.59;;;29.78;31.91
25650;BME280;13505;45.196;5.696;2023-06-14T16:07:13;98548.16;;;29.27;33.30
25650;BME280;13505;45.196;5.696;2023-06-14T16:12:05;98550.44;;;29.23;33.29
25650;BME280;13505;45.196;5.696;2023-06-14T16:16:55;98554.81;;;29.11;33.17
25650;BME280;13505;45.196;5.696;2023-06-14T16:21:45;98557.75;;;29.30;31.93
25650;BME280;13505;45.196;5.696;2023-06-14T16:26:36;98557.16;;;29.28;31.55
25650;BME280;13505;45.196;5.696;2023-06-14T16:31:26;98551.91;;;29.13;31.76
25650;BME280;13505;45.196;5.696;2023-06-14T16:36:17;98560.06;;;29.26;31.44
25650;BME280;13505;45.196;5.696;2023-06-14T16:41:07;98564.31;;;28.73;32.30
25650;BME280;13505;45.196;5.696;2023-06-14T16:45:57;98561.53;;;28.53;32.33
25650;BME280;13505;45.196;5.696;2023-06-14T16:50:48;98569.28;;;28.63;27.91
25650;BME280;13505;45.196;5.696;2023-06-14T16:55:38;98581.00;;;28.70;27.55
25650;BME280;13505;45.196;5.696;2023-06-14T17:00:28;98578.06;;;28.72;27.09
25650;BME280;13505;45.196;5.696;2023-06-14T17:05:19;98597.41;;;28.55;27.35
25650;BME280;13505;45.196;5.696;2023-06-14T17:10:10;98601.13;;;28.47;26.77
25650;BME280;13505;45.196;5.696;2023-06-14T17:15:02;98608.22;;;28.41;27.15
25650;BME280;13505;45.196;5.696;2023-06-14T17:19:52;98612.00;;;28.19;26.41
25650;BME280;13505;45.196;5.696;2023-06-14T17:24:43;98620.16;;;28.19;25.86
25650;BME280;13505;45.196;5.696;2023-06-14T17:29:33;98633.28;;;27.93;26.72
25650;BME280;13505;45.196;5.696;2023-06-14T17:34:23;98644.66;;;27.82;25.64
25650;BME280;13505;45.196;5.696;2023-06-14T17:39:14;98643.16;;;27.72;28.38
25650;BME280;13505;45.196;5.696;2023-06-14T17:44:04;98648.47;;;27.66;27.76
25650;BME280;13505;45.196;5.696;2023-06-14T17:48:54;98656.47;;;27.52;27.84
25650;BME280;13505;45.196;5.696;2023-06-14T17:53:45;98673.72;;;27.29;27.79
25650;BME280;13505;45.196;5.696;2023-06-14T17:58:35;98680.31;;;27.05;28.58
